createdAt,value
2024-04-14T00:00:15.424Z,3.73
2024-04-14T00:02:42.612Z,3.53
2024-04-14T00:05:09.590Z,3.90
2024-04-14T00:07:37.994Z,3.13
2024-04-14T00:10:05.404Z,2.97
2024-04-14T00:12:32.372Z,3.10
2024-04-14T00:14:59.265Z,3.37
2024-04-14T00:17:26.319Z,2.90
2024-04-14T00:19:54.123Z,2.67
2024-04-14T00:22:22.141Z,2.50
2024-04-14T00:24:49.552Z,2.80
2024-04-14T00:27:16.491Z,2.70
2024-04-14T00:29:43.524Z,3.00
2024-04-14T00:32:10.503Z,2.70
2024-04-14T00:34:37.451Z,2.50
2024-04-14T00:37:05.546Z,2.60
2024-04-14T00:39:32.552Z,2.53
2024-04-14T00:42:00.097Z,2.30
2024-04-14T00:44:27.676Z,2.33
2024-04-14T00:46:55.863Z,2.30
2024-04-14T00:49:24.159Z,2.40
2024-04-14T00:51:51.779Z,2.20
2024-04-14T00:54:19.427Z,2.40
2024-04-14T00:56:48.141Z,2.23
2024-04-14T00:59:16.038Z,2.60
2024-04-14T01:01:43.080Z,2.30
2024-04-14T01:04:10.212Z,2.43
2024-04-14T01:06:37.685Z,2.13
2024-04-14T01:09:05.062Z,2.37
2024-04-14T01:11:32.147Z,2.70
2024-04-14T01:13:59.042Z,2.23
2024-04-14T01:16:25.904Z,2.37
2024-04-14T01:18:53.020Z,2.23
2024-04-14T01:21:20.195Z,2.10
2024-04-14T01:23:47.254Z,2.37
2024-04-14T01:26:14.105Z,2.17
2024-04-14T01:28:40.967Z,2.40
2024-04-14T01:31:08.001Z,2.00
2024-04-14T01:33:34.973Z,1.80
2024-04-14T01:36:01.871Z,2.03
2024-04-14T01:38:28.978Z,2.10
2024-04-14T01:40:55.866Z,2.20
2024-04-14T01:43:22.853Z,2.27
2024-04-14T01:45:49.972Z,1.90
2024-04-14T01:48:17.006Z,2.53
2024-04-14T01:50:44.010Z,1.87
2024-04-14T01:53:10.923Z,2.27
2024-04-14T01:55:37.879Z,2.00
2024-04-14T01:58:04.947Z,2.10
2024-04-14T02:00:32.140Z,2.10
2024-04-14T02:03:00.232Z,1.90
2024-04-14T02:05:27.190Z,2.00
2024-04-14T02:07:54.281Z,2.00
2024-04-14T02:10:21.300Z,1.90
2024-04-14T02:12:48.528Z,2.00
2024-04-14T02:15:15.725Z,1.97
2024-04-14T02:17:42.656Z,2.10
2024-04-14T02:20:11.819Z,1.97
2024-04-14T02:22:39.716Z,2.30
2024-04-14T02:25:06.722Z,1.93
2024-04-14T02:27:33.917Z,2.50
2024-04-14T02:30:00.787Z,1.93
2024-04-14T02:32:27.746Z,2.00
2024-04-14T02:34:54.875Z,2.27
2024-04-14T02:37:21.763Z,2.10
2024-04-14T02:39:48.829Z,2.20
2024-04-14T02:42:15.936Z,2.20
2024-04-14T02:44:42.797Z,2.40
2024-04-14T02:47:09.701Z,2.23
2024-04-14T02:49:36.931Z,2.43
2024-04-14T02:52:04.368Z,2.40
2024-04-14T02:54:31.297Z,2.00
2024-04-14T02:56:58.584Z,2.27
2024-04-14T02:59:25.528Z,2.13
2024-04-14T03:01:52.496Z,2.23
2024-04-14T03:04:22.418Z,2.23
2024-04-14T03:06:51.056Z,2.20
2024-04-14T03:09:17.981Z,2.00
2024-04-14T03:11:45.599Z,2.43
2024-04-14T03:14:12.484Z,2.50
2024-04-14T03:16:39.687Z,2.50
2024-04-14T03:19:06.708Z,2.70
2024-04-14T03:21:33.807Z,2.43
2024-04-14T03:24:00.944Z,2.60
2024-04-14T03:26:27.902Z,2.77
2024-04-14T03:28:56.356Z,2.67
2024-04-14T03:31:23.555Z,2.87
2024-04-14T03:33:50.681Z,3.10
2024-04-14T03:36:17.631Z,2.70
2024-04-14T03:38:44.677Z,2.87
2024-04-14T03:41:11.506Z,2.80
2024-04-14T03:43:38.454Z,2.80
2024-04-14T03:46:05.854Z,2.67
2024-04-14T03:48:32.880Z,2.50
2024-04-14T03:51:00.024Z,2.70
2024-04-14T03:53:26.957Z,2.47
2024-04-14T03:55:53.800Z,2.80
2024-04-14T03:58:20.860Z,2.53
2024-04-14T04:00:47.889Z,2.57
2024-04-14T04:03:14.906Z,2.67
2024-04-14T04:05:42.135Z,2.77
2024-04-14T04:08:09.639Z,2.63
2024-04-14T04:10:36.543Z,2.93
2024-04-14T04:13:03.778Z,2.73
2024-04-14T04:15:30.738Z,2.70
2024-04-14T04:17:57.718Z,2.60
2024-04-14T04:20:24.843Z,2.90
2024-04-14T04:22:51.869Z,2.53
2024-04-14T04:25:18.922Z,2.70
2024-04-14T04:27:45.972Z,3.03
2024-04-14T04:30:13.232Z,2.83
2024-04-14T04:32:40.730Z,3.07
2024-04-14T04:35:07.888Z,2.70
2024-04-14T04:37:34.770Z,2.70
2024-04-14T04:40:01.976Z,2.40
2024-04-14T04:42:28.946Z,3.10
2024-04-14T04:44:55.886Z,2.93
2024-04-14T04:47:23.172Z,2.93
2024-04-14T04:49:50.162Z,2.47
2024-04-14T04:52:17.040Z,2.70
2024-04-14T04:54:43.996Z,2.33
2024-04-14T04:57:10.910Z,2.67
2024-04-14T04:59:37.803Z,2.73
2024-04-14T05:02:04.998Z,2.90
2024-04-14T05:04:31.907Z,2.87
2024-04-14T05:07:00.070Z,2.93
2024-04-14T05:09:27.231Z,2.50
2024-04-14T05:11:54.198Z,2.53
2024-04-14T05:14:23.601Z,2.40
2024-04-14T05:16:51.081Z,2.43
2024-04-14T05:19:18.301Z,2.53
2024-04-14T05:21:47.470Z,2.30
2024-04-14T05:24:14.704Z,2.17
2024-04-14T05:26:41.631Z,2.23
2024-04-14T05:29:08.549Z,2.03
2024-04-14T05:31:35.668Z,2.10
2024-04-14T05:34:02.717Z,1.90
2024-04-14T05:36:29.769Z,2.47
2024-04-14T05:38:56.966Z,1.83
2024-04-14T05:41:23.937Z,1.50
2024-04-14T05:43:50.879Z,1.93
2024-04-14T05:46:18.031Z,2.10
2024-04-14T05:48:44.965Z,2.13
2024-04-14T05:51:11.907Z,1.97
2024-04-14T05:53:39.011Z,2.00
2024-04-14T05:56:06.970Z,1.97
2024-04-14T05:58:34.309Z,2.13
2024-04-14T06:01:08.415Z,1.90
2024-04-14T06:03:36.229Z,1.90
2024-04-14T06:06:03.346Z,2.50
2024-04-14T06:08:30.549Z,2.23
2024-04-14T06:10:59.125Z,1.80
2024-04-14T06:13:26.101Z,1.97
2024-04-14T06:15:53.286Z,1.50
2024-04-14T06:18:20.175Z,2.17
2024-04-14T06:20:47.156Z,1.83
2024-04-14T06:23:17.179Z,1.80
2024-04-14T06:25:47.116Z,1.83
2024-04-14T06:28:14.219Z,1.73
2024-04-14T06:30:41.196Z,2.00
2024-04-14T06:33:08.387Z,1.80
2024-04-14T06:35:37.193Z,2.23
2024-04-14T06:38:04.261Z,1.77
2024-04-14T06:40:31.121Z,1.83
2024-04-14T06:42:58.396Z,1.80
2024-04-14T06:45:25.453Z,2.63
2024-04-14T06:47:52.386Z,2.37
2024-04-14T06:50:19.506Z,2.13
2024-04-14T06:52:46.482Z,2.07
2024-04-14T06:55:14.071Z,2.13
2024-04-14T06:57:41.218Z,2.08
2024-04-14T07:00:09.104Z,1.55
2024-04-14T07:02:36.074Z,1.17
2024-04-14T07:05:03.326Z,1.25
2024-04-14T07:07:33.088Z,1.30
2024-04-14T07:10:01.842Z,1.60
2024-04-14T07:12:28.947Z,1.30
2024-04-14T07:14:55.884Z,1.77
2024-04-14T07:17:22.903Z,1.40
2024-04-14T07:19:49.804Z,1.30
2024-04-14T07:22:16.939Z,1.53
2024-04-14T07:24:45.167Z,1.50
2024-04-14T07:27:12.195Z,1.20
2024-04-14T07:29:39.894Z,1.43
2024-04-14T07:32:07.994Z,1.20
2024-04-14T07:34:34.908Z,1.03
2024-04-14T07:37:04.024Z,1.53
2024-04-14T07:39:32.411Z,1.30
2024-04-14T07:42:05.313Z,1.77
2024-04-14T07:44:32.573Z,1.70
2024-04-14T07:46:59.444Z,1.60
2024-04-14T07:49:26.435Z,1.97
2024-04-14T07:51:53.512Z,1.50
2024-04-14T07:54:20.489Z,1.40
2024-04-14T07:56:47.392Z,1.40
2024-04-14T07:59:14.466Z,1.77
2024-04-14T08:01:41.406Z,1.60
2024-04-14T08:04:08.805Z,1.23
2024-04-14T08:06:36.365Z,1.50
2024-04-14T08:09:03.404Z,1.10
2024-04-14T08:11:30.563Z,1.43
2024-04-14T08:13:57.789Z,1.60
2024-04-14T08:16:25.587Z,1.63
2024-04-14T08:18:52.548Z,1.80
2024-04-14T08:21:20.296Z,1.80
2024-04-14T08:23:47.620Z,1.60
2024-04-14T08:26:14.887Z,1.00
2024-04-14T08:28:42.076Z,1.10
2024-04-14T08:31:09.164Z,1.40
2024-04-14T08:33:36.525Z,1.63
2024-04-14T08:36:04.324Z,1.73
2024-04-14T08:38:31.453Z,1.40
2024-04-14T08:41:00.209Z,1.20
2024-04-14T08:43:28.466Z,1.70
2024-04-14T08:45:58.323Z,1.60
2024-04-14T08:48:27.031Z,1.83
2024-04-14T08:50:56.679Z,1.70
2024-04-14T08:53:26.055Z,1.30
2024-04-14T08:55:53.540Z,1.40
2024-04-14T08:58:22.024Z,1.53
2024-04-14T09:00:53.850Z,1.57
2024-04-14T09:03:20.817Z,1.33
2024-04-14T09:05:48.762Z,1.17
2024-04-14T09:08:15.790Z,1.17
2024-04-14T09:10:42.838Z,1.53
2024-04-14T09:13:10.309Z,1.17
2024-04-14T09:15:42.161Z,1.27
2024-04-14T09:18:09.264Z,1.70
2024-04-14T09:20:36.950Z,1.50
2024-04-14T09:23:03.972Z,1.67
2024-04-14T09:25:31.236Z,1.40
2024-04-14T09:28:05.265Z,1.30
2024-04-14T09:30:32.491Z,1.40
2024-04-14T09:32:59.531Z,1.53
2024-04-14T09:35:27.719Z,1.27
2024-04-14T09:37:58.142Z,1.23
2024-04-14T09:40:26.921Z,1.47
2024-04-14T09:42:59.711Z,1.50
2024-04-14T09:45:26.862Z,1.33
2024-04-14T09:47:57.498Z,1.60
2024-04-14T09:50:25.423Z,1.23
2024-04-14T09:52:54.206Z,1.53
2024-04-14T09:55:21.634Z,1.53
2024-04-14T09:57:50.367Z,2.13
2024-04-14T10:00:18.381Z,1.20
2024-04-14T10:03:10.099Z,1.40
2024-04-14T10:05:39.286Z,1.70
2024-04-14T10:08:08.591Z,1.40
2024-04-14T10:10:35.876Z,1.73
2024-04-14T10:13:08.375Z,1.77
2024-04-14T10:15:35.674Z,1.63
2024-04-14T10:18:19.396Z,1.20
2024-04-14T10:20:49.144Z,1.70
2024-04-14T10:23:20.811Z,1.70
2024-04-14T10:25:52.289Z,1.48
2024-04-14T10:28:24.008Z,1.40
2024-04-14T10:31:07.481Z,1.95
2024-04-14T10:33:34.599Z,1.45
2024-04-14T10:36:06.384Z,1.58
2024-04-14T10:38:35.660Z,1.67
2024-04-14T10:41:03.106Z,1.77
2024-04-14T10:43:31.269Z,2.03
2024-04-14T10:46:02.702Z,1.58
2024-04-14T10:48:30.768Z,1.80
2024-04-14T10:50:57.878Z,1.80
2024-04-14T10:53:24.793Z,1.45
2024-04-14T10:55:51.689Z,1.60
2024-04-14T10:58:18.812Z,1.40
2024-04-14T11:00:46.571Z,1.95
2024-04-14T11:03:13.844Z,1.90
2024-04-14T11:05:41.144Z,2.10
2024-04-14T11:08:13.519Z,1.87
2024-04-14T11:10:41.242Z,1.60
2024-04-14T11:13:09.457Z,2.10
2024-04-14T11:15:38.625Z,1.37
2024-04-14T11:18:05.731Z,1.67
2024-04-14T11:20:32.900Z,1.70
2024-04-14T11:23:03.661Z,1.77
2024-04-14T11:25:31.802Z,1.55
2024-04-14T11:27:59.070Z,1.95
2024-04-14T11:30:33.389Z,3.15
2024-04-14T11:33:04.230Z,1.83
2024-04-14T11:35:31.637Z,1.60
2024-04-14T11:37:58.518Z,1.33
2024-04-14T11:40:26.795Z,1.37
2024-04-14T11:42:54.101Z,1.70
2024-04-14T11:45:21.194Z,1.60
2024-04-14T11:47:48.392Z,1.63
2024-04-14T11:50:15.477Z,1.70
2024-04-14T11:52:42.699Z,1.50
2024-04-14T11:55:10.774Z,1.60
2024-04-14T11:57:37.808Z,2.50
2024-04-14T12:00:05.800Z,3.17
2024-04-14T12:02:32.985Z,1.40
2024-04-14T12:04:59.982Z,1.95
2024-04-14T12:07:26.953Z,1.93
2024-04-14T12:09:54.179Z,1.87
2024-04-14T12:12:21.201Z,1.40
2024-04-14T12:14:48.217Z,2.00
2024-04-14T12:17:15.403Z,1.50
2024-04-14T12:19:42.432Z,1.97
2024-04-14T12:22:09.459Z,1.27
2024-04-14T12:24:36.728Z,1.70
2024-04-14T12:27:04.802Z,1.80
2024-04-14T12:29:32.667Z,1.57
2024-04-14T12:31:59.836Z,1.23
2024-04-14T12:34:26.977Z,2.23
2024-04-14T12:36:53.933Z,1.57
2024-04-14T12:39:27.487Z,1.60
2024-04-14T12:41:57.785Z,1.37
2024-04-14T12:44:24.875Z,1.27
2024-04-14T12:46:51.978Z,1.40
2024-04-14T12:49:28.808Z,1.27
2024-04-14T12:52:00.113Z,1.30
2024-04-14T12:54:27.805Z,1.00
2024-04-14T12:56:55.217Z,1.75
2024-04-14T12:59:22.189Z,1.40
2024-04-14T13:01:50.064Z,1.40
2024-04-14T13:04:17.494Z,1.00
2024-04-14T13:06:44.577Z,1.70
2024-04-14T13:09:11.524Z,1.53
2024-04-14T13:11:38.838Z,1.63
2024-04-14T13:14:05.914Z,1.30
2024-04-14T13:16:32.793Z,1.47
2024-04-14T13:19:00.641Z,1.53
2024-04-14T13:21:29.845Z,2.00
2024-04-14T13:23:56.882Z,1.30
2024-04-14T13:26:24.031Z,1.30
2024-04-14T13:28:51.286Z,1.60
2024-04-14T13:31:18.432Z,1.50
2024-04-14T13:33:45.698Z,1.40
2024-04-14T13:36:13.162Z,1.30
2024-04-14T13:38:40.116Z,1.20
2024-04-14T13:41:08.457Z,1.40
2024-04-14T13:43:35.390Z,1.33
2024-04-14T13:46:02.472Z,1.30
2024-04-14T13:48:29.646Z,1.10
2024-04-14T13:50:56.629Z,1.00
2024-04-14T13:53:23.494Z,1.30
2024-04-14T13:55:50.586Z,0.80
2024-04-14T13:58:21.438Z,0.90
2024-04-14T14:00:49.351Z,1.37
2024-04-14T14:03:16.736Z,1.00
2024-04-14T14:05:43.620Z,1.10
2024-04-14T14:08:10.590Z,1.30
2024-04-14T14:10:37.717Z,1.23
2024-04-14T14:13:06.052Z,1.07
2024-04-14T14:15:32.986Z,1.30
2024-04-14T14:18:00.233Z,1.07
2024-04-14T14:20:27.162Z,1.10
2024-04-14T14:22:54.146Z,1.60
2024-04-14T14:25:22.420Z,0.93
2024-04-14T14:27:49.968Z,1.17
2024-04-14T14:30:16.904Z,1.10
2024-04-14T14:32:44.059Z,1.27
2024-04-14T14:35:29.713Z,1.10
2024-04-14T14:37:58.702Z,1.30
2024-04-14T14:40:26.933Z,1.13
2024-04-14T14:42:53.829Z,0.97
2024-04-14T14:45:21.033Z,1.03
2024-04-14T14:47:50.606Z,0.97
2024-04-14T14:50:17.714Z,1.17
2024-04-14T14:52:45.419Z,1.17
2024-04-14T14:55:12.343Z,1.10
2024-04-14T14:57:39.291Z,1.20
2024-04-14T15:00:10.743Z,1.50
2024-04-14T15:02:39.553Z,1.30
2024-04-14T15:05:07.036Z,1.60
2024-04-14T15:10:18.896Z,1.33
2024-04-14T15:12:45.831Z,1.50
2024-04-14T15:15:13.141Z,1.30
2024-04-14T15:17:40.365Z,1.00
2024-04-14T15:20:08.214Z,1.07
2024-04-14T15:22:35.224Z,1.50
2024-04-14T15:25:02.547Z,1.43
2024-04-14T15:27:29.805Z,1.50
2024-04-14T15:29:56.651Z,1.73
2024-04-14T15:32:24.022Z,1.37
2024-04-14T15:34:50.927Z,1.73
2024-04-14T15:37:17.827Z,1.80
2024-04-14T15:39:46.940Z,1.43
2024-04-14T15:42:13.850Z,2.37
2024-04-14T15:44:40.842Z,1.50
2024-04-14T15:47:08.013Z,1.37
2024-04-14T15:49:35.040Z,1.70
2024-04-14T15:52:01.977Z,1.93
2024-04-14T15:54:28.974Z,1.60
2024-04-14T15:56:55.877Z,1.47
2024-04-14T15:59:22.797Z,1.53
2024-04-14T16:01:49.876Z,1.60
2024-04-14T16:04:17.000Z,1.23
2024-04-14T16:06:44.013Z,1.57
2024-04-14T16:09:11.082Z,1.30
2024-04-14T16:11:38.029Z,1.80
2024-04-14T16:14:05.047Z,1.87
2024-04-14T16:16:32.336Z,1.80
2024-04-14T16:18:59.383Z,2.17
2024-04-14T16:21:26.893Z,1.83
2024-04-14T16:23:54.184Z,1.50
2024-04-14T16:26:21.166Z,1.47
2024-04-14T16:28:48.269Z,1.57
2024-04-14T16:31:15.982Z,1.53
2024-04-14T16:33:43.873Z,1.53
2024-04-14T16:36:12.288Z,1.60
2024-04-14T16:38:39.847Z,1.60
2024-04-14T16:41:07.936Z,1.20
2024-04-14T16:43:34.857Z,1.53
2024-04-14T16:46:02.150Z,1.27
2024-04-14T16:48:29.445Z,1.70
2024-04-14T16:50:56.500Z,1.53
2024-04-14T16:53:23.674Z,1.43
2024-04-14T16:55:50.697Z,1.40
2024-04-14T16:58:18.214Z,2.00
2024-04-14T17:00:45.807Z,1.17
2024-04-14T17:03:12.914Z,1.50
2024-04-14T17:05:40.299Z,1.50
2024-04-14T17:08:07.546Z,1.30
2024-04-14T17:10:34.553Z,1.53
2024-04-14T17:13:01.968Z,1.20
2024-04-14T17:15:28.971Z,1.63
2024-04-14T17:17:56.127Z,1.70
2024-04-14T17:20:23.534Z,1.47
2024-04-14T17:22:50.409Z,1.17
2024-04-14T17:25:17.554Z,1.77
2024-04-14T17:27:44.730Z,1.47
2024-04-14T17:30:11.614Z,1.77
2024-04-14T17:32:38.738Z,1.60
2024-04-14T17:35:06.768Z,1.23
2024-04-14T17:37:33.715Z,1.27
2024-04-14T17:40:03.409Z,1.50
2024-04-14T17:42:32.794Z,1.30
2024-04-14T17:44:59.747Z,1.90
2024-04-14T17:47:27.056Z,1.57
2024-04-14T17:49:54.014Z,1.33
2024-04-14T17:52:21.309Z,1.40
2024-04-14T17:54:48.473Z,1.20
2024-04-14T17:57:16.437Z,1.73
2024-04-14T17:59:43.402Z,1.67
2024-04-14T18:02:10.792Z,1.30
2024-04-14T18:04:38.778Z,1.40
2024-04-14T18:07:05.939Z,0.90
2024-04-14T18:09:32.855Z,1.60
2024-04-14T18:11:59.916Z,1.40
2024-04-14T18:14:27.127Z,1.37
2024-04-14T18:16:54.210Z,1.33
2024-04-14T18:19:21.133Z,1.50
2024-04-14T18:21:48.064Z,1.23
2024-04-14T18:24:15.079Z,1.30
2024-04-14T18:26:42.087Z,1.27
2024-04-14T18:29:09.357Z,1.23
2024-04-14T18:31:36.786Z,1.00
2024-04-14T18:34:03.963Z,1.30
2024-04-14T18:36:31.141Z,1.37
2024-04-14T18:38:58.334Z,1.37
2024-04-14T18:41:25.357Z,1.20
2024-04-14T18:43:52.656Z,1.23
2024-04-14T18:46:19.819Z,1.30
2024-04-14T18:48:46.933Z,1.33
2024-04-14T18:51:13.882Z,1.40
2024-04-14T18:53:40.826Z,1.87
2024-04-14T18:56:08.840Z,2.17
2024-04-14T18:58:35.812Z,2.67
2024-04-14T19:01:04.390Z,2.90
2024-04-14T19:03:32.616Z,2.17
2024-04-14T19:06:04.053Z,2.60
2024-04-14T19:08:32.584Z,3.70
2024-04-14T19:10:59.744Z,3.37
2024-04-14T19:13:26.756Z,3.00
2024-04-14T19:16:04.281Z,2.30
2024-04-14T19:18:31.828Z,2.70
2024-04-14T19:20:58.873Z,2.50
2024-04-14T19:23:26.544Z,2.40
2024-04-14T19:26:10.402Z,2.67
2024-04-14T19:28:37.916Z,3.67
2024-04-14T19:31:05.882Z,3.47
2024-04-14T19:33:33.010Z,2.87
2024-04-14T19:36:00.118Z,2.23
2024-04-14T19:38:28.245Z,3.80
2024-04-14T19:40:57.335Z,2.87
2024-04-14T19:43:24.424Z,3.07
2024-04-14T19:45:52.543Z,1.93
2024-04-14T19:48:19.675Z,2.20
2024-04-14T19:50:46.821Z,1.97
2024-04-14T19:53:13.822Z,1.60
2024-04-14T19:55:41.456Z,1.53
2024-04-14T19:58:08.920Z,2.43
2024-04-14T20:00:36.467Z,1.40
2024-04-14T20:03:04.262Z,1.70
2024-04-14T20:05:31.462Z,1.60
2024-04-14T20:07:58.646Z,2.27
2024-04-14T20:10:26.893Z,1.50
2024-04-14T20:12:54.591Z,2.23
2024-04-14T20:15:22.396Z,1.83
2024-04-14T20:17:50.146Z,1.50
2024-04-14T20:20:17.507Z,1.47
2024-04-14T20:22:44.577Z,1.33
2024-04-14T20:25:11.661Z,1.20
2024-04-14T20:27:39.338Z,1.40
2024-04-14T20:30:08.346Z,1.20
2024-04-14T20:32:35.470Z,1.37
2024-04-14T20:35:02.943Z,1.13
2024-04-14T20:37:29.875Z,1.60
2024-04-14T20:39:56.912Z,1.50
2024-04-14T20:42:24.092Z,1.23
2024-04-14T20:44:51.041Z,0.97
2024-04-14T20:47:21.594Z,1.00
2024-04-14T20:49:51.819Z,0.93
2024-04-14T20:52:19.591Z,1.27
2024-04-14T20:54:47.341Z,1.63
2024-04-14T20:57:14.993Z,1.20
2024-04-14T20:59:41.963Z,1.10
2024-04-14T21:02:09.306Z,1.03
2024-04-14T21:04:45.603Z,1.03
2024-04-14T21:07:16.797Z,1.40
2024-04-14T21:09:44.230Z,1.20
2024-04-14T21:12:11.262Z,1.30
2024-04-14T21:14:38.554Z,1.50
2024-04-14T21:17:05.753Z,1.40
2024-04-14T21:19:32.924Z,1.97
2024-04-14T21:22:00.087Z,2.00
2024-04-14T21:24:27.335Z,1.77
2024-04-14T21:26:54.243Z,1.57
2024-04-14T21:29:21.314Z,2.40
2024-04-14T21:31:48.667Z,1.90
2024-04-14T21:34:16.530Z,2.00
2024-04-14T21:36:45.836Z,1.67
2024-04-14T21:39:13.161Z,1.10
2024-04-14T21:41:41.209Z,1.47
2024-04-14T21:44:08.229Z,1.20
2024-04-14T21:46:35.580Z,1.20
2024-04-14T21:49:02.613Z,1.10
2024-04-14T21:51:29.605Z,1.87
2024-04-14T21:53:56.928Z,2.40
2024-04-14T21:56:23.982Z,1.30
2024-04-14T21:58:51.445Z,2.00
2024-04-14T22:01:19.086Z,1.70
2024-04-14T22:03:46.652Z,1.50
2024-04-14T22:06:14.066Z,1.80
2024-04-14T22:08:41.886Z,1.43
2024-04-14T22:11:10.362Z,1.47
2024-04-14T22:13:38.470Z,1.20
2024-04-14T22:16:06.009Z,1.57
2024-04-14T22:18:33.189Z,1.20
2024-04-14T22:21:00.844Z,1.40
2024-04-14T22:23:27.830Z,1.13
2024-04-14T22:25:55.812Z,0.97
2024-04-14T22:28:23.019Z,0.80
2024-04-14T22:30:50.214Z,1.33
2024-04-14T22:33:17.309Z,0.80
2024-04-14T22:35:44.744Z,0.83
2024-04-14T22:38:11.658Z,1.13
2024-04-14T22:40:38.690Z,1.20
2024-04-14T22:43:05.945Z,0.93
2024-04-14T22:45:32.865Z,0.97
2024-04-14T22:47:59.824Z,1.40
2024-04-14T22:50:26.959Z,1.40
2024-04-14T22:52:53.884Z,1.60
2024-04-14T22:55:20.849Z,1.00
2024-04-14T22:57:48.049Z,1.03
2024-04-14T23:00:15.110Z,1.10
2024-04-14T23:02:42.012Z,1.30
2024-04-14T23:05:09.132Z,1.40
2024-04-14T23:07:36.096Z,1.40
2024-04-14T23:10:03.124Z,1.20
2024-04-14T23:12:30.369Z,0.90
2024-04-14T23:14:57.278Z,1.20
2024-04-14T23:17:24.215Z,1.53
2024-04-14T23:19:51.316Z,1.30
2024-04-14T23:22:18.746Z,1.10
2024-04-14T23:24:45.756Z,1.53
2024-04-14T23:27:12.905Z,1.10
2024-04-14T23:29:39.779Z,1.10
2024-04-14T23:32:07.409Z,1.20
2024-04-14T23:34:34.982Z,1.20
2024-04-14T23:37:02.124Z,1.47
2024-04-14T23:39:29.043Z,1.40
2024-04-14T23:41:58.247Z,1.30
2024-04-14T23:44:25.296Z,1.67
2024-04-14T23:46:52.247Z,0.70
2024-04-14T23:49:19.393Z,1.10
2024-04-14T23:51:46.311Z,1.17
2024-04-14T23:54:13.220Z,1.20
2024-04-14T23:56:40.278Z,1.10
2024-04-14T23:59:07.167Z,1.37
